Time;durP1;ratioP1;P1;durP2;ratioP2;P2;SDS_P1;SDS_P2;PMS_P1;PMS_P2;Temp;Humidity;BMP_temperature;BMP_pressure;BME280_temperature;BME280_humidity;BME280_pressure;Samples;Min_cycle;Max_cycle;Signal;HPM_P1;HPM_P2
2021/09/14 00:01:17;;;;;;;9.68;3.13;;;15.00;99.90;;;;;;4896924;29;20397;-70
2021/09/14 00:03:42;;;;;;;8.32;3.63;;;15.00;99.90;;;;;;4896868;29;20032;-70
2021/09/14 00:06:08;;;;;;;7.43;3.08;;;15.10;99.90;;;;;;4892745;29;20123;-71
2021/09/14 00:08:33;;;;;;;7.55;3.40;;;15.00;99.90;;;;;;4893924;29;20446;-71
2021/09/14 00:11:00;;;;;;;5.15;3.38;;;15.10;99.90;;;;;;4897553;29;20043;-71
2021/09/14 00:13:25;;;;;;;7.40;3.33;;;15.10;99.90;;;;;;4895285;29;20131;-71
2021/09/14 00:15:51;;;;;;;6.38;3.25;;;15.10;99.90;;;;;;4897331;29;20087;-71
2021/09/14 00:18:17;;;;;;;4.80;3.33;;;15.00;99.90;;;;;;4895962;29;20112;-70
2021/09/14 00:20:42;;;;;;;8.32;3.58;;;15.00;99.90;;;;;;4888876;29;20080;-70
2021/09/14 00:23:08;;;;;;;6.05;3.53;;;15.00;99.90;;;;;;4880454;29;20041;-71
2021/09/14 00:25:35;;;;;;;3.53;3.00;;;14.90;99.90;;;;;;4897266;29;20394;-71
2021/09/14 00:28:01;;;;;;;5.17;2.90;;;14.90;99.90;;;;;;4897358;29;20035;-71
2021/09/14 00:30:27;;;;;;;8.20;3.75;;;15.00;99.90;;;;;;4896618;29;20634;-71
2021/09/14 00:32:52;;;;;;;10.88;3.83;;;14.90;99.90;;;;;;4897509;29;20035;-71
2021/09/14 00:35:18;;;;;;;6.80;3.28;;;14.90;99.90;;;;;;4896362;29;20036;-71
2021/09/14 00:37:44;;;;;;;5.78;3.05;;;14.90;99.90;;;;;;4897390;29;20100;-70
2021/09/14 00:40:10;;;;;;;9.13;4.28;;;14.90;99.90;;;;;;4896337;29;20036;-71
2021/09/14 00:42:36;;;;;;;6.47;3.70;;;14.90;99.90;;;;;;4897341;29;20107;-71
2021/09/14 00:45:06;;;;;;;7.80;3.67;;;14.80;99.90;;;;;;4892585;29;20068;-71
2021/09/14 00:47:31;;;;;;;8.35;3.92;;;14.80;99.90;;;;;;4898123;29;20020;-70
2021/09/14 00:49:59;;;;;;;9.07;3.92;;;14.80;99.90;;;;;;4898812;29;20045;-71
2021/09/14 00:52:24;;;;;;;7.50;3.38;;;14.80;99.90;;;;;;4898736;29;20044;-71
2021/09/14 00:54:50;;;;;;;5.07;3.00;;;14.80;99.90;;;;;;4913701;29;20040;-70
2021/09/14 00:57:16;;;;;;;5.97;3.47;;;14.80;99.90;;;;;;4899047;29;20045;-71
2021/09/14 00:59:42;;;;;;;6.20;3.55;;;14.80;99.90;;;;;;4900214;29;20028;-70
2021/09/14 01:02:08;;;;;;;4.57;3.17;;;14.80;99.90;;;;;;4900474;29;20390;-71
2021/09/14 01:04:34;;;;;;;7.68;3.40;;;14.80;99.90;;;;;;4899420;29;20037;-71
2021/09/14 01:07:02;;;;;;;5.40;3.45;;;14.80;99.90;;;;;;4900651;29;20041;-71
2021/09/14 01:09:30;;;;;;;10.98;3.40;;;14.70;99.90;;;;;;4900443;29;20028;-70
2021/09/14 01:11:56;;;;;;;6.53;3.55;;;14.70;99.90;;;;;;4899933;29;20534;-70
2021/09/14 01:14:22;;;;;;;4.45;3.80;;;14.70;99.90;;;;;;4888495;29;20072;-71
2021/09/14 01:16:48;;;;;;;5.00;4.40;;;14.70;99.90;;;;;;4898251;29;20044;-71
2021/09/14 01:19:13;;;;;;;9.50;4.40;;;14.70;99.90;;;;;;4900087;29;20036;-71
2021/09/14 01:21:39;;;;;;;4.28;3.30;;;14.70;99.90;;;;;;4899765;29;20481;-71
2021/09/14 01:24:05;;;;;;;11.02;3.97;;;14.70;99.90;;;;;;4899717;29;20076;-71
2021/09/14 01:26:31;;;;;;;8.52;3.95;;;14.70;99.90;;;;;;4913939;29;20040;-71
2021/09/14 01:28:57;;;;;;;10.57;4.20;;;14.70;99.90;;;;;;4898122;29;20379;-71
2021/09/14 01:31:23;;;;;;;5.60;4.25;;;14.70;99.90;;;;;;4899500;29;20021;-71
2021/09/14 01:33:52;;;;;;;7.22;3.58;;;14.80;99.90;;;;;;4899855;29;20100;-71
2021/09/14 01:36:20;;;;;;;8.38;3.92;;;14.90;99.90;;;;;;4899211;29;20100;-71
2021/09/14 01:38:46;;;;;;;5.35;4.00;;;14.90;99.90;;;;;;4900123;29;20039;-71
2021/09/14 01:41:12;;;;;;;5.95;3.45;;;14.90;99.90;;;;;;4899675;29;20035;-72
2021/09/14 01:43:39;;;;;;;5.47;3.55;;;14.90;99.90;;;;;;4898698;29;20040;-71
2021/09/14 01:46:06;;;;;;;5.65;3.88;;;14.90;99.90;;;;;;4914123;29;20028;-71
2021/09/14 01:48:32;;;;;;;6.20;3.50;;;14.80;99.90;;;;;;4899686;29;20067;-71
2021/09/14 01:50:57;;;;;;;5.32;3.92;;;14.90;99.90;;;;;;4899237;29;20068;-71
2021/09/14 01:53:25;;;;;;;7.22;3.85;;;14.90;99.90;;;;;;4893708;29;20077;-71
2021/09/14 01:55:51;;;;;;;8.75;4.18;;;14.90;99.90;;;;;;4897400;29;20036;-71
2021/09/14 01:58:18;;;;;;;8.18;4.38;;;15.00;99.90;;;;;;4897837;29;20037;-71
2021/09/14 02:00:57;;;;;;;8.00;4.95;;;15.00;99.90;;;;;;4899378;29;20036;-71
2021/09/14 03:00:33;;;;;;;8.77;4.93;;;14.90;99.90;;;;;;4894531;29;20120;-71
2021/09/14 03:02:59;;;;;;;12.80;6.15;;;14.90;99.90;;;;;;4879725;29;20458;-71
2021/09/14 03:05:25;;;;;;;10.02;4.97;;;14.90;99.90;;;;;;4890254;29;20090;-71
2021/09/14 03:07:50;;;;;;;11.70;5.00;;;14.90;99.90;;;;;;4911843;29;20044;-71
2021/09/14 03:10:16;;;;;;;12.35;5.32;;;14.90;99.90;;;;;;4897558;29;20537;-71
2021/09/14 03:12:41;;;;;;;8.45;5.03;;;14.90;99.90;;;;;;4898344;29;20080;-71
2021/09/14 03:15:07;;;;;;;7.47;4.82;;;14.80;99.90;;;;;;4912403;29;20124;-71
2021/09/14 03:17:33;;;;;;;11.43;5.32;;;14.80;99.90;;;;;;4898299;29;20037;-71
2021/09/14 03:19:59;;;;;;;8.80;5.25;;;14.80;99.90;;;;;;4895513;29;20092;-71
2021/09/14 03:22:24;;;;;;;9.02;5.03;;;14.80;99.90;;;;;;4890965;29;20395;-71
2021/09/14 03:24:50;;;;;;;9.20;5.93;;;14.70;99.90;;;;;;4911927;29;20038;-71
2021/09/14 03:27:15;;;;;;;9.88;5.05;;;14.80;99.90;;;;;;4897922;29;20029;-71
2021/09/14 03:29:41;;;;;;;6.32;5.07;;;14.70;99.90;;;;;;4897617;29;20032;-71
2021/09/14 03:32:07;;;;;;;10.90;5.32;;;14.70;99.90;;;;;;4897048;29;20036;-71
2021/09/14 03:34:33;;;;;;;10.02;5.65;;;14.70;99.90;;;;;;4897820;29;20035;-71
2021/09/14 03:36:58;;;;;;;11.75;4.88;;;14.70;99.90;;;;;;4896426;29;20504;-71
2021/09/14 03:39:24;;;;;;;13.10;6.45;;;14.70;99.90;;;;;;4897541;29;20389;-71
2021/09/14 03:41:49;;;;;;;10.68;5.55;;;14.60;99.90;;;;;;4907781;29;20120;-71
2021/09/14 03:44:15;;;;;;;14.63;5.75;;;14.60;99.90;;;;;;4897835;29;20024;-71
2021/09/14 03:46:40;;;;;;;8.23;5.50;;;14.60;99.90;;;;;;4897509;29;20058;-71
2021/09/14 03:49:06;;;;;;;7.78;5.40;;;14.50;99.90;;;;;;4911660;29;20181;-70
2021/09/14 03:51:32;;;;;;;7.60;5.55;;;14.50;99.90;;;;;;4897152;29;20037;-71
2021/09/14 03:53:57;;;;;;;8.50;5.80;;;14.50;99.90;;;;;;4911672;29;20142;-71
2021/09/14 03:56:23;;;;;;;7.15;5.30;;;14.50;99.90;;;;;;4897381;29;20024;-71
2021/09/14 03:58:48;;;;;;;13.10;5.30;;;14.50;99.90;;;;;;4897440;29;20108;-71
2021/09/14 04:01:14;;;;;;;14.10;5.78;;;14.50;99.90;;;;;;4893983;29;20033;-70
2021/09/14 04:03:43;;;;;;;9.80;5.90;;;14.40;99.90;;;;;;4896986;29;20039;-71
2021/09/14 04:08:51;;;;;;;13.63;6.55;;;14.40;99.90;;;;;;4897933;29;20056;-71
2021/09/14 04:11:18;;;;;;;11.88;5.32;;;14.30;99.90;;;;;;4897126;29;20445;-71
2021/09/14 04:13:44;;;;;;;12.65;6.28;;;14.30;99.90;;;;;;4897662;29;20100;-71
2021/09/14 04:16:09;;;;;;;8.20;5.47;;;14.20;99.90;;;;;;4896917;29;20032;-71
2021/09/14 04:18:35;;;;;;;7.53;5.72;;;14.20;99.90;;;;;;4897196;29;20035;-71
2021/09/14 04:21:00;;;;;;;8.25;5.93;;;14.20;99.90;;;;;;4914812;29;20049;-71
2021/09/14 04:23:26;;;;;;;11.60;6.65;;;14.20;99.90;;;;;;4901089;29;20021;-71
2021/09/14 04:25:52;;;;;;;8.88;5.82;;;14.10;99.90;;;;;;4885893;29;20048;-72
2021/09/14 04:28:17;;;;;;;12.48;5.55;;;14.10;99.90;;;;;;4907759;29;20239;-72
2021/09/14 04:30:43;;;;;;;12.57;6.15;;;14.20;99.90;;;;;;4892854;29;20061;-70
2021/09/14 04:33:08;;;;;;;9.52;5.53;;;14.20;99.90;;;;;;4880915;29;20384;-71
2021/09/14 04:35:35;;;;;;;11.00;6.00;;;14.20;99.90;;;;;;4894969;29;20040;-70
2021/09/14 04:38:02;;;;;;;11.50;5.88;;;14.20;99.90;;;;;;4901114;29;20029;-70
2021/09/14 04:40:28;;;;;;;11.77;5.82;;;14.30;99.90;;;;;;4900291;29;20048;-70
2021/09/14 04:42:54;;;;;;;12.52;6.18;;;14.30;99.90;;;;;;4900961;29;20056;-70
2021/09/14 04:45:19;;;;;;;9.10;5.53;;;14.20;99.90;;;;;;4900543;29;20032;-70
2021/09/14 04:47:45;;;;;;;9.88;6.10;;;14.20;99.90;;;;;;4901036;29;20510;-70
2021/09/14 04:50:10;;;;;;;9.65;5.82;;;14.20;99.90;;;;;;4893052;29;20041;-70
2021/09/14 04:52:36;;;;;;;12.23;6.43;;;14.20;99.90;;;;;;4912244;29;20052;-71
2021/09/14 04:55:02;;;;;;;14.15;6.57;;;14.20;99.90;;;;;;4899431;29;20100;-72
2021/09/14 04:57:28;;;;;;;12.27;5.93;;;14.20;99.90;;;;;;4914367;29;20036;-72
2021/09/14 04:59:53;;;;;;;9.82;5.75;;;14.20;99.90;;;;;;4900136;29;20096;-72
2021/09/14 05:02:19;;;;;;;15.98;6.45;;;14.20;99.90;;;;;;4898996;29;20488;-72
2021/09/14 05:04:45;;;;;;;11.85;5.68;;;14.10;99.90;;;;;;4900597;29;20049;-72
2021/09/14 05:07:11;;;;;;;10.48;5.78;;;14.10;99.90;;;;;;4901226;29;20028;-72
2021/09/14 05:09:36;;;;;;;13.48;5.88;;;14.10;99.90;;;;;;4903004;29;20079;-71
2021/09/14 05:12:02;;;;;;;10.15;6.63;;;14.10;99.90;;;;;;4902957;29;20028;-72
2021/09/14 05:14:28;;;;;;;13.50;6.60;;;14.10;99.90;;;;;;4903571;29;20035;-73
2021/09/14 05:16:53;;;;;;;11.75;6.82;;;14.10;99.90;;;;;;4916944;29;20052;-72
2021/09/14 05:19:30;;;;;;;10.85;6.57;;;14.10;99.90;;;;;;4903503;29;20068;-70
2021/09/14 05:21:58;;;;;;;13.13;7.05;;;14.10;99.90;;;;;;4902976;29;20568;-73
2021/09/14 05:24:24;;;;;;;11.18;6.78;;;14.10;99.90;;;;;;4917928;29;20032;-72
2021/09/14 05:26:49;;;;;;;14.93;6.97;;;14.10;99.90;;;;;;4896630;29;20040;-73
2021/09/14 05:29:15;;;;;;;13.77;7.18;;;14.10;99.90;;;;;;4904105;29;20028;-70
2021/09/14 05:31:41;;;;;;;13.95;8.20;;;14.10;99.90;;;;;;4901405;29;20043;-70
2021/09/14 05:34:07;;;;;;;10.98;7.25;;;14.10;99.90;;;;;;4902075;29;20474;-71
2021/09/14 05:36:32;;;;;;;10.85;7.22;;;14.20;99.90;;;;;;4892593;29;20032;-70
2021/09/14 05:38:58;;;;;;;16.48;8.15;;;14.20;99.90;;;;;;4900573;29;20033;-70
2021/09/14 05:41:24;;;;;;;15.43;7.45;;;14.20;99.90;;;;;;4900418;29;20076;-71
2021/09/14 05:43:49;;;;;;;16.95;7.45;;;14.20;99.90;;;;;;4899864;29;20092;-71
2021/09/14 05:46:15;;;;;;;13.35;7.55;;;14.20;99.90;;;;;;4899513;29;20087;-70
2021/09/14 05:48:41;;;;;;;15.18;8.23;;;14.20;99.90;;;;;;4899560;29;20469;-71
2021/09/14 05:51:06;;;;;;;17.00;7.65;;;14.20;99.90;;;;;;4899454;29;20076;-72
2021/09/14 05:53:33;;;;;;;14.82;7.72;;;14.30;99.90;;;;;;4890144;29;20033;-71
2021/09/14 05:55:58;;;;;;;12.70;6.60;;;14.30;99.90;;;;;;4899327;29;20421;-70
2021/09/14 05:58:24;;;;;;;14.70;7.82;;;14.40;99.90;;;;;;4897844;29;20047;-70
2021/09/14 06:00:50;;;;;;;11.77;7.13;;;14.30;99.90;;;;;;4899140;29;20036;-70
2021/09/14 06:03:15;;;;;;;14.65;7.75;;;14.40;99.90;;;;;;4899073;29;20052;-70
2021/09/14 06:05:41;;;;;;;12.45;7.07;;;14.50;99.90;;;;;;4898878;29;20052;-71
2021/09/14 06:08:06;;;;;;;12.00;7.13;;;14.50;99.90;;;;;;4899547;29;20024;-70
2021/09/14 06:10:32;;;;;;;13.50;7.35;;;14.60;99.90;;;;;;4898798;29;20033;-70
2021/09/14 06:12:58;;;;;;;11.55;7.30;;;14.60;99.90;;;;;;4896758;29;20040;-71
2021/09/14 06:15:23;;;;;;;12.68;7.75;;;14.60;99.90;;;;;;4896288;29;20032;-71
2021/09/14 06:17:49;;;;;;;13.02;7.53;;;14.70;99.90;;;;;;4899233;29;20032;-71
2021/09/14 06:20:15;;;;;;;13.43;6.97;;;14.70;99.90;;;;;;4898804;29;20149;-70
2021/09/14 06:22:40;;;;;;;10.95;7.05;;;14.70;99.90;;;;;;4898715;29;20393;-71
2021/09/14 06:25:06;;;;;;;15.90;8.10;;;14.70;99.90;;;;;;4896931;29;20040;-71
2021/09/14 06:27:32;;;;;;;12.00;6.88;;;14.60;99.90;;;;;;4899262;29;20025;-71
2021/09/14 06:29:58;;;;;;;15.68;8.02;;;14.70;99.90;;;;;;4898958;29;20044;-70
2021/09/14 06:32:23;;;;;;;15.10;7.20;;;14.70;99.90;;;;;;4898912;29;20506;-70
2021/09/14 06:34:49;;;;;;;11.52;7.30;;;14.80;99.90;;;;;;4897679;29;20036;-70
2021/09/14 06:37:14;;;;;;;14.60;7.60;;;14.70;99.90;;;;;;4898669;29;20080;-71
2021/09/14 06:39:40;;;;;;;18.08;8.63;;;14.70;99.90;;;;;;4899044;29;20031;-70
2021/09/14 06:42:06;;;;;;;19.85;8.48;;;14.80;99.90;;;;;;4897258;29;20115;-70
2021/09/14 06:44:32;;;;;;;13.95;8.32;;;14.80;99.90;;;;;;4896534;29;20108;-71
2021/09/14 06:46:58;;;;;;;15.80;8.50;;;14.90;99.90;;;;;;4898566;29;20039;-71
2021/09/14 06:49:26;;;;;;;10.68;7.55;;;14.90;99.90;;;;;;4897034;29;20036;-70
2021/09/14 06:51:51;;;;;;;22.63;9.07;;;14.80;99.90;;;;;;4893411;29;20566;-73
2021/09/14 06:54:17;;;;;;;15.25;8.40;;;14.90;99.90;;;;;;4896853;29;20061;-69
2021/09/14 06:56:42;;;;;;;17.85;8.68;;;14.90;99.90;;;;;;4898589;29;20394;-73
2021/09/14 06:59:08;;;;;;;14.75;8.73;;;15.00;99.90;;;;;;4895444;29;20073;-68
2021/09/14 07:01:33;;;;;;;16.38;8.35;;;15.00;99.90;;;;;;4898961;29;20123;-68
2021/09/14 07:03:59;;;;;;;14.77;8.85;;;15.10;99.90;;;;;;4898599;29;20088;-68
2021/09/14 07:06:25;;;;;;;13.05;8.02;;;15.10;99.90;;;;;;4898171;29;20147;-70
2021/09/14 07:08:50;;;;;;;16.58;8.75;;;15.20;99.90;;;;;;4897402;29;20037;-70
2021/09/14 07:11:16;;;;;;;16.10;8.30;;;15.20;99.90;;;;;;4889134;29;20073;-70
2021/09/14 07:13:42;;;;;;;12.98;8.20;;;15.30;99.90;;;;;;4898425;29;20024;-72
2021/09/14 07:16:08;;;;;;;17.85;7.93;;;15.30;99.90;;;;;;4898409;29;20521;-70
2021/09/14 07:18:37;;;;;;;17.85;8.40;;;15.40;99.90;;;;;;4898210;29;20053;-71
2021/09/14 07:21:03;;;;;;;13.60;7.90;;;15.50;99.90;;;;;;4883938;29;20040;-73
2021/09/14 07:23:29;;;;;;;16.70;8.82;;;15.60;99.90;;;;;;4885009;29;20044;-71
2021/09/14 07:25:54;;;;;;;16.50;9.32;;;15.70;99.90;;;;;;4897123;29;20064;-71
2021/09/14 07:28:20;;;;;;;23.15;9.32;;;15.90;99.90;;;;;;4884475;29;20090;-70
2021/09/14 07:30:46;;;;;;;13.43;8.23;;;16.00;99.90;;;;;;4912262;29;20043;-72
2021/09/14 07:33:13;;;;;;;16.55;8.98;;;16.10;99.90;;;;;;4898431;29;20020;-71
2021/09/14 07:35:39;;;;;;;22.88;8.63;;;16.10;99.90;;;;;;4896350;29;20045;-73
2021/09/14 07:38:05;;;;;;;13.57;8.13;;;16.10;99.90;;;;;;4898211;29;20490;-72
2021/09/14 07:40:31;;;;;;;13.63;8.80;;;16.10;99.90;;;;;;4878349;29;20037;-72
2021/09/14 07:42:57;;;;;;;12.75;7.65;;;16.20;99.90;;;;;;4905524;29;20025;-72
2021/09/14 07:45:22;;;;;;;16.90;8.95;;;16.40;99.90;;;;;;4892859;29;20044;-73
2021/09/14 07:47:48;;;;;;;20.42;8.75;;;16.50;99.90;;;;;;4893182;29;20028;-71
2021/09/14 07:50:14;;;;;;;17.13;8.80;;;16.50;99.90;;;;;;4895976;29;20060;-72
2021/09/14 07:52:40;;;;;;;18.02;8.48;;;16.60;99.90;;;;;;4897966;29;20394;-69
2021/09/14 07:55:06;;;;;;;15.95;8.13;;;16.70;99.90;;;;;;4896698;29;20577;-69
2021/09/14 07:57:32;;;;;;;19.38;10.10;;;16.70;99.90;;;;;;4897460;29;20108;-70
2021/09/14 07:59:58;;;;;;;15.25;9.13;;;16.60;99.90;;;;;;4894106;29;20123;-70
2021/09/14 08:02:24;;;;;;;16.05;9.27;;;16.70;99.90;;;;;;4911711;29;20040;-69
2021/09/14 08:04:50;;;;;;;16.02;9.98;;;16.70;99.90;;;;;;4895696;29;20060;-71
2021/09/14 08:07:16;;;;;;;13.95;8.93;;;16.80;99.90;;;;;;4895741;29;20042;-71
2021/09/14 08:09:42;;;;;;;15.77;10.20;;;16.90;99.90;;;;;;4896912;29;20067;-68
2021/09/14 08:12:07;;;;;;;16.30;9.25;;;17.10;99.90;;;;;;4897337;29;20116;-69
2021/09/14 08:14:33;;;;;;;15.57;9.20;;;17.20;99.90;;;;;;4912096;29;20025;-69
2021/09/14 08:17:00;;;;;;;15.48;9.07;;;17.40;99.90;;;;;;4911752;29;20196;-69
2021/09/14 08:19:25;;;;;;;15.07;9.02;;;17.60;99.90;;;;;;4889856;29;20033;-70
2021/09/14 08:21:51;;;;;;;20.80;10.68;;;17.80;99.90;;;;;;4905872;29;20040;-70
2021/09/14 08:24:17;;;;;;;18.40;10.30;;;18.00;99.90;;;;;;4912172;29;20040;-68
2021/09/14 08:26:43;;;;;;;14.70;8.98;;;18.10;99.90;;;;;;4895826;29;20028;-69
2021/09/14 08:29:09;;;;;;;15.52;9.93;;;18.10;99.90;;;;;;4895698;29;20044;-69
2021/09/14 08:31:34;;;;;;;12.77;8.93;;;18.10;99.90;;;;;;4889951;29;20049;-69
2021/09/14 08:34:00;;;;;;;15.07;9.32;;;18.10;99.90;;;;;;4911473;29;20048;-69
2021/09/14 08:36:26;;;;;;;20.23;9.07;;;18.10;99.90;;;;;;4896874;29;20025;-70
2021/09/14 08:38:52;;;;;;;15.95;9.98;;;18.10;99.90;;;;;;4881166;29;20040;-69
2021/09/14 08:41:18;;;;;;;17.67;10.63;;;18.10;99.90;;;;;;4884768;29;20545;-70
2021/09/14 08:43:47;;;;;;;19.33;10.48;;;18.20;99.90;;;;;;4897096;29;20061;-72
2021/09/14 08:46:15;;;;;;;17.58;9.40;;;18.40;99.90;;;;;;4896460;29;20025;-70
2021/09/14 08:48:40;;;;;;;12.70;9.23;;;18.60;99.90;;;;;;4896759;29;20040;-71
2021/09/14 08:51:07;;;;;;;23.80;11.77;;;18.80;99.90;;;;;;4890222;29;20116;-69
2021/09/14 08:53:36;;;;;;;28.13;15.43;;;19.00;99.90;;;;;;4891667;29;20521;-67
2021/09/14 08:56:05;;;;;;;18.52;10.52;;;19.10;99.90;;;;;;4896534;29;20393;-69
2021/09/14 08:58:31;;;;;;;38.58;16.75;;;19.10;99.90;;;;;;4893539;29;20177;-69
2021/09/14 09:00:57;;;;;;;21.63;12.60;;;19.10;99.90;;;;;;4891356;29;20241;-69
2021/09/14 09:03:28;;;;;;;13.48;9.05;;;19.00;99.90;;;;;;4891631;29;20438;-69
2021/09/14 09:05:54;;;;;;;18.88;10.60;;;19.00;99.90;;;;;;4897296;29;20049;-69
2021/09/14 09:08:23;;;;;;;42.17;22.42;;;19.10;99.90;;;;;;4899584;29;20182;-69
2021/09/14 09:11:02;;;;;;;16.45;9.30;;;19.40;99.90;;;;;;4898415;29;20478;-69
2021/09/14 09:13:43;;;;;;;20.00;10.48;;;19.60;99.90;;;;;;4900658;29;20040;-70
2021/09/14 09:16:17;;;;;;;16.20;8.40;;;19.80;99.90;;;;;;4899521;29;20033;-71
2021/09/14 09:18:53;;;;;;;16.13;7.88;;;20.10;99.90;;;;;;4900249;29;20044;-69
2021/09/14 09:21:30;;;;;;;13.73;8.85;;;20.20;99.90;;;;;;4899815;29;20036;-71
2021/09/14 09:23:58;;;;;;;16.80;9.20;;;20.40;99.90;;;;;;4900537;29;20029;-70
2021/09/14 09:26:42;;;;;;;16.23;9.88;;;20.50;99.90;;;;;;4905149;29;20056;-70
2021/09/14 09:29:09;;;;;;;12.25;8.73;;;20.60;99.90;;;;;;4895340;29;20025;-70
2021/09/14 09:31:37;;;;;;;18.90;10.50;;;20.60;99.90;;;;;;4898246;29;20036;-70
2021/09/14 09:34:06;;;;;;;14.30;9.43;;;20.70;99.90;;;;;;4899187;29;20039;-71
2021/09/14 09:36:36;;;;;;;12.77;8.68;;;20.70;99.90;;;;;;4898965;29;20028;-70
2021/09/14 09:39:04;;;;;;;14.70;9.57;;;20.80;99.90;;;;;;4880149;29;20371;-70
2021/09/14 09:41:34;;;;;;;14.63;9.32;;;20.90;99.90;;;;;;4902138;29;20182;-70
2021/09/14 09:44:12;;;;;;;17.27;8.02;;;21.10;99.90;;;;;;4900043;29;20371;-70
2021/09/14 09:46:39;;;;;;;11.88;8.00;;;21.40;99.90;;;;;;4899454;29;20504;-71
2021/09/14 09:49:06;;;;;;;14.80;9.07;;;21.50;99.90;;;;;;4900141;29;20474;-70
2021/09/14 09:51:34;;;;;;;13.73;7.72;;;21.60;99.90;;;;;;4898476;29;20255;-70
2021/09/14 09:54:01;;;;;;;13.45;7.57;;;21.80;99.90;;;;;;4899708;29;20512;-70
2021/09/14 09:56:29;;;;;;;10.55;7.65;;;21.90;99.90;;;;;;4899108;29;20497;-71
2021/09/14 09:58:55;;;;;;;11.30;7.88;;;22.00;99.90;;;;;;4898205;29;20077;-71
2021/09/14 10:01:26;;;;;;;20.23;6.72;;;22.10;99.90;;;;;;4899647;29;20562;-71
2021/09/14 10:04:16;;;;;;;9.35;6.88;;;22.20;99.90;;;;;;4897755;29;20028;-70
2021/09/14 10:06:47;;;;;;;13.27;6.97;;;22.40;99.90;;;;;;4899338;29;20063;-70
2021/09/14 10:09:14;;;;;;;9.80;6.90;;;22.50;99.90;;;;;;4899607;29;20033;-70
2021/09/14 10:11:40;;;;;;;8.32;6.40;;;22.50;99.90;;;;;;4897896;29;20055;-70
2021/09/14 10:14:07;;;;;;;7.63;6.22;;;22.40;99.90;;;;;;4888757;29;20028;-71
2021/09/14 10:16:38;;;;;;;11.02;7.63;;;22.30;99.90;;;;;;4900282;29;20033;-71
2021/09/14 10:19:13;;;;;;;10.60;6.05;;;22.50;99.90;;;;;;4900365;29;20115;-71
2021/09/14 10:21:41;;;;;;;10.38;6.65;;;22.50;99.90;;;;;;4898936;29;20496;-71
2021/09/14 10:24:20;;;;;;;8.73;6.60;;;22.60;99.90;;;;;;4898340;29;20124;-70
2021/09/14 10:26:47;;;;;;;8.95;6.72;;;22.70;99.90;;;;;;4893662;29;20063;-70
2021/09/14 10:29:14;;;;;;;9.30;6.53;;;22.70;99.90;;;;;;4880595;29;20029;-71
2021/09/14 10:31:41;;;;;;;10.93;6.60;;;22.90;99.90;;;;;;4890462;29;20043;-71
2021/09/14 10:34:12;;;;;;;8.82;6.35;;;23.00;99.90;;;;;;4895259;29;20032;-70
2021/09/14 10:36:41;;;;;;;14.45;7.05;;;23.20;99.90;;;;;;4899241;29;20540;-71
2021/09/14 10:39:27;;;;;;;10.57;6.28;;;23.30;99.90;;;;;;4894351;29;20033;-70
2021/09/14 10:41:55;;;;;;;11.45;6.97;;;23.50;99.90;;;;;;4880145;29;20036;-71
2021/09/14 10:44:24;;;;;;;;;;;23.60;99.90;;;;;;4885165;29;20037;-74
2021/09/14 10:47:02;;;;;;;9.68;6.32;;;23.60;99.90;;;;;;4895555;29;19966;-69
2021/09/14 10:49:42;;;;;;;7.18;6.40;;;23.60;99.90;;;;;;4896308;29;20032;-69
2021/09/14 10:52:07;;;;;;;11.73;6.93;;;23.70;99.90;;;;;;4898654;29;20033;-68
2021/09/14 10:54:49;;;;;;;11.18;7.22;;;23.60;99.90;;;;;;4898241;29;20037;-70
2021/09/14 10:57:15;;;;;;;11.65;7.00;;;23.60;99.90;;;;;;4906714;29;20037;-70
2021/09/14 10:59:51;;;;;;;12.93;6.93;;;23.60;99.90;;;;;;4897659;29;20028;-70
2021/09/14 11:02:18;;;;;;;9.00;5.38;;;23.50;99.90;;;;;;4898084;29;20496;-70
2021/09/14 11:04:44;;;;;;;7.95;5.68;;;23.40;99.90;;;;;;4893293;29;20041;-69
2021/09/14 11:07:11;;;;;;;8.25;5.97;;;23.40;99.90;;;;;;4882448;29;20029;-71
2021/09/14 11:09:36;;;;;;;9.18;6.90;;;23.30;99.90;;;;;;4879724;29;20505;-68
2021/09/14 11:12:02;;;;;;;12.95;7.03;;;23.20;99.90;;;;;;4893743;29;20033;-70
2021/09/14 11:14:37;;;;;;;10.32;6.97;;;23.20;99.90;;;;;;4897967;29;20029;-69
2021/09/14 11:17:03;;;;;;;11.38;6.72;;;23.30;99.90;;;;;;4893842;29;20490;-68
2021/09/14 11:19:29;;;;;;;12.13;5.95;;;23.60;99.90;;;;;;4887511;29;20092;-69
2021/09/14 11:21:54;;;;;;;11.02;6.75;;;23.90;99.90;;;;;;4898491;29;20035;-68
2021/09/14 11:24:21;;;;;;;10.77;5.72;;;24.00;99.90;;;;;;4897423;29;20031;-68
2021/09/14 11:26:47;;;;;;;9.95;5.70;;;23.90;99.90;;;;;;4898269;29;20024;-68
2021/09/14 11:29:12;;;;;;;9.05;6.53;;;24.00;99.90;;;;;;4896718;29;20076;-68
2021/09/14 11:31:39;;;;;;;13.48;6.60;;;24.00;99.90;;;;;;4898230;29;20036;-69
2021/09/14 11:34:05;;;;;;;11.38;6.50;;;24.10;99.90;;;;;;4896322;29;20104;-69
2021/09/14 11:36:32;;;;;;;7.45;5.53;;;24.40;99.90;;;;;;4897855;29;20438;-69
2021/09/14 11:39:06;;;;;;;8.35;5.50;;;24.50;99.90;;;;;;4895506;29;20576;-69
2021/09/14 11:41:37;;;;;;;9.50;5.05;;;24.70;99.90;;;;;;4890016;29;20056;-68
2021/09/14 11:44:04;;;;;;;9.88;6.53;;;24.80;99.90;;;;;;4897645;29;20025;-68
2021/09/14 11:46:30;;;;;;;6.35;5.03;;;24.90;99.90;;;;;;4897972;29;20033;-68
2021/09/14 11:49:01;;;;;;;9.10;5.20;;;25.00;99.90;;;;;;4895932;29;20024;-70
2021/09/14 11:51:36;;;;;;;6.78;4.78;;;25.10;99.90;;;;;;4883953;29;20029;-68
2021/09/14 11:54:02;;;;;;;7.45;5.60;;;25.00;99.90;;;;;;4900656;29;20029;-69
2021/09/14 11:56:29;;;;;;;9.45;5.30;;;25.00;99.90;;;;;;4900252;29;20127;-67
2021/09/14 11:58:54;;;;;;;9.57;5.53;;;25.00;99.90;;;;;;4900284;29;20044;-69
2021/09/14 12:01:29;;;;;;;12.27;6.43;;;24.80;99.90;;;;;;4899453;29;20021;-68
2021/09/14 12:03:57;;;;;;;6.82;5.03;;;24.80;99.90;;;;;;4896324;29;20044;-68
2021/09/14 12:06:31;;;;;;;6.30;5.15;;;24.60;99.90;;;;;;4896564;29;20041;-69
2021/09/14 12:08:58;;;;;;;8.65;5.55;;;24.60;99.90;;;;;;4895982;29;20435;-69
2021/09/14 12:11:32;;;;;;;5.68;5.10;;;24.70;99.90;;;;;;4897481;29;20568;-67
2021/09/14 12:14:00;;;;;;;8.70;5.13;;;24.90;99.90;;;;;;4893953;29;20524;-67
2021/09/14 12:16:28;;;;;;;6.22;4.95;;;25.00;99.90;;;;;;4897697;29;20028;-68
2021/09/14 12:18:57;;;;;;;8.45;5.15;;;25.00;99.90;;;;;;4895833;29;20036;-70
2021/09/14 12:21:23;;;;;;;5.88;4.53;;;25.10;99.90;;;;;;4897161;29;20040;-69
2021/09/14 12:23:50;;;;;;;6.83;5.07;;;24.90;99.90;;;;;;4892514;29;20064;-70
2021/09/14 12:26:22;;;;;;;7.18;4.57;;;24.90;99.90;;;;;;4911746;29;20280;-70
2021/09/14 12:28:49;;;;;;;6.57;3.97;;;24.90;99.90;;;;;;4894091;29;20040;-69
2021/09/14 12:31:15;;;;;;;6.63;4.38;;;24.90;99.90;;;;;;4897289;29;20500;-69
2021/09/14 12:33:41;;;;;;;7.30;4.00;;;24.90;99.90;;;;;;4897041;29;20580;-68
2021/09/14 12:36:06;;;;;;;6.18;3.65;;;24.90;99.90;;;;;;4895912;29;20033;-69
2021/09/14 12:38:32;;;;;;;5.70;4.93;;;24.80;99.90;;;;;;4895447;29;20079;-68
2021/09/14 12:40:58;;;;;;;6.65;4.38;;;24.80;99.90;;;;;;4897473;29;20111;-70
2021/09/14 12:43:23;;;;;;;8.40;4.65;;;24.80;99.90;;;;;;4900892;29;20574;-70
2021/09/14 12:45:49;;;;;;;6.60;3.65;;;24.70;99.90;;;;;;4900989;29;20025;-68
2021/09/14 12:48:14;;;;;;;5.93;4.03;;;24.60;99.90;;;;;;4899939;29;20060;-68
2021/09/14 12:50:40;;;;;;;5.13;3.55;;;24.60;99.90;;;;;;4900799;29;20032;-69
2021/09/14 12:53:06;;;;;;;9.00;5.50;;;24.60;99.90;;;;;;4900942;29;20032;-69
2021/09/14 12:55:36;;;;;;;7.05;4.13;;;24.60;99.90;;;;;;4900874;29;20024;-69
2021/09/14 12:58:04;;;;;;;9.10;4.60;;;24.50;99.90;;;;;;4882254;29;20111;-69
2021/09/14 13:00:30;;;;;;;10.02;5.20;;;24.40;99.90;;;;;;4880640;29;20387;-68
2021/09/14 13:02:56;;;;;;;6.90;4.78;;;24.30;99.90;;;;;;4882093;29;20037;-69
2021/09/14 13:05:26;;;;;;;8.48;5.25;;;24.20;99.90;;;;;;4881862;29;20041;-69
2021/09/14 13:07:52;;;;;;;12.55;5.80;;;24.20;99.90;;;;;;4882009;29;20033;-69
2021/09/14 13:10:17;;;;;;;9.23;5.90;;;24.10;99.90;;;;;;4881896;29;20033;-70
2021/09/14 13:12:51;;;;;;;7.35;5.63;;;24.10;99.90;;;;;;4881973;29;20109;-70
2021/09/14 13:18:02;;;;;;;7.88;5.55;;;23.90;99.90;;;;;;4882281;29;20106;-68
2021/09/14 13:20:28;;;;;;;11.02;6.78;;;23.80;99.90;;;;;;4893531;29;20045;-69
2021/09/14 13:22:54;;;;;;;8.30;5.18;;;23.60;99.90;;;;;;4882022;29;20033;-69
2021/09/14 13:25:22;;;;;;;7.28;5.78;;;23.50;99.90;;;;;;4896108;29;20033;-69
2021/09/14 13:27:48;;;;;;;12.60;6.38;;;23.50;99.90;;;;;;4880377;29;20041;-68
2021/09/14 13:30:14;;;;;;;7.57;6.57;;;23.50;99.90;;;;;;4881595;29;20410;-69
2021/09/14 13:32:39;;;;;;;15.02;7.10;;;23.50;99.90;;;;;;4881654;29;20045;-69
2021/09/14 13:35:05;;;;;;;8.70;6.25;;;23.40;99.90;;;;;;4881681;29;20468;-69
2021/09/14 13:37:32;;;;;;;10.02;6.50;;;23.40;99.90;;;;;;4881531;29;20029;-69
2021/09/14 13:39:58;;;;;;;12.63;6.50;;;23.40;99.90;;;;;;4881387;29;20573;-69
2021/09/14 13:42:24;;;;;;;7.68;5.95;;;23.40;99.90;;;;;;4895300;29;20361;-69